Time;durP1;ratioP1;P1;durP2;ratioP2;P2;SDS_P1;SDS_P2;PMS_P1;PMS_P2;Temp;Humidity;BMP_temperature;BMP_pressure;BME280_temperature;BME280_humidity;BME280_pressure;Samples;Min_cycle;Max_cycle;Signal;HPM_P1;HPM_P2
2023/06/02 00:01:03;;;;;;;11.70;6.75;;;;;;;11.46;71.53;99089.34;6239631;23;20363;-79
2023/06/02 00:03:33;;;;;;;12.85;7.18;;;;;;;11.18;71.37;99090.31;6240220;23;20169;-79
2023/06/02 00:06:00;;;;;;;16.52;6.38;;;;;;;11.98;69.47;99091.34;6238339;23;20007;-80
2023/06/02 00:08:31;;;;;;;18.90;6.63;;;;;;;11.33;71.08;99083.31;6240084;23;20004;-79
2023/06/02 00:10:56;;;;;;;10.95;5.70;;;;;;;11.57;70.35;99089.25;6240016;23;20015;-79
2023/06/02 00:13:22;;;;;;;13.68;7.35;;;;;;;10.90;70.07;99085.91;6240231;23;20008;-79
2023/06/02 00:15:47;;;;;;;12.02;7.07;;;;;;;10.94;69.44;99075.56;6212951;23;20015;-78
2023/06/02 00:18:13;;;;;;;9.18;6.28;;;;;;;11.41;69.80;99087.41;6238526;23;20058;-79
2023/06/02 00:20:39;;;;;;;10.88;6.75;;;;;;;10.49;69.58;99095.13;6239496;23;20008;-79
2023/06/02 00:23:08;;;;;;;10.55;6.13;;;;;;;11.16;67.99;99089.78;6241435;22;20067;-79
2023/06/02 00:25:35;;;;;;;12.55;5.82;;;;;;;11.56;68.02;99087.63;6213574;23;20019;-78
2023/06/02 00:28:00;;;;;;;9.02;5.03;;;;;;;13.39;64.62;99087.16;6238490;23;20022;-79
2023/06/02 00:30:27;;;;;;;17.40;7.57;;;;;;;12.17;64.86;99105.19;6239680;23;20095;-80
2023/06/02 00:32:53;;;;;;;12.73;6.75;;;;;;;12.16;64.42;99100.09;6240515;22;20004;-80
2023/06/02 00:35:18;;;;;;;10.50;5.47;;;;;;;11.13;67.21;99099.06;6212752;23;20016;-79
2023/06/02 00:37:43;;;;;;;7.78;5.38;;;;;;;10.90;67.85;99096.59;6239341;22;20005;-79
2023/06/02 00:40:09;;;;;;;11.38;6.30;;;;;;;10.73;67.97;99101.13;6239949;22;20377;-79
2023/06/02 00:42:35;;;;;;;9.52;5.30;;;;;;;10.88;69.12;99093.34;6213679;23;20011;-79
2023/06/02 00:45:01;;;;;;;13.55;5.00;;;;;;;11.30;69.16;99072.31;6241085;22;20055;-79
2023/06/02 00:47:26;;;;;;;13.80;5.88;;;;;;;11.30;68.89;99077.66;6238280;23;20004;-80
2023/06/02 00:49:52;;;;;;;14.98;6.05;;;;;;;10.33;69.44;99090.56;6239721;23;20071;-79
2023/06/02 00:52:18;;;;;;;15.38;7.22;;;;;;;10.46;67.67;99084.94;6240840;22;20106;-79
2023/06/02 00:54:44;;;;;;;14.55;6.00;;;;;;;10.98;69.67;99080.16;6240314;23;20008;-80
2023/06/02 00:57:09;;;;;;;15.27;6.75;;;;;;;10.98;67.47;99090.03;6214101;23;20587;-79
2023/06/02 00:59:36;;;;;;;13.85;6.70;;;;;;;10.27;68.66;99091.53;6240584;22;20111;-79
2023/06/02 01:02:02;;;;;;;10.40;5.88;;;;;;;10.76;69.63;99095.31;6240341;22;20001;-79
2023/06/02 01:04:30;;;;;;;10.18;6.10;;;;;;;10.34;68.36;99096.72;6239342;23;20008;-79
2023/06/02 01:07:00;;;;;;;12.27;6.53;;;;;;;9.93;69.27;99081.00;6240448;22;20000;-79
2023/06/02 01:09:27;;;;;;;11.13;7.18;;;;;;;10.15;69.63;99088.16;6239149;23;20008;-79
2023/06/02 01:11:52;;;;;;;11.90;6.70;;;;;;;9.61;70.55;99091.34;6240749;22;20010;-79
2023/06/02 01:14:18;;;;;;;10.70;7.22;;;;;;;10.27;69.12;99091.53;6237161;23;20008;-79
2023/06/02 01:16:44;;;;;;;11.98;6.70;;;;;;;10.09;68.85;99089.03;6238675;22;20018;-79
2023/06/02 01:19:13;;;;;;;13.10;6.35;;;;;;;9.95;69.57;99089.59;6236178;23;20004;-80
2023/06/02 01:21:41;;;;;;;18.33;7.57;;;;;;;10.40;68.76;99096.56;6236714;23;20377;-80
2023/06/02 01:24:06;;;;;;;15.63;6.32;;;;;;;10.24;68.81;99088.56;6238655;23;20600;-81
2023/06/02 01:26:34;;;;;;;13.52;6.38;;;;;;;10.10;69.47;99097.88;6212676;23;20095;-79
2023/06/02 01:29:00;;;;;;;19.95;6.75;;;;;;;10.28;68.07;99082.50;6236533;23;20015;-79
2023/06/02 01:31:30;;;;;;;12.35;5.95;;;;;;;10.61;68.23;99080.91;6241036;22;20639;-79
2023/06/02 01:33:56;;;;;;;9.57;5.35;;;;;;;9.86;69.70;99086.50;6240299;23;20012;-79
2023/06/02 01:36:23;;;;;;;14.85;6.15;;;;;;;9.89;69.16;99099.34;6240174;23;20004;-79
2023/06/02 01:38:50;;;;;;;18.15;6.47;;;;;;;9.96;69.15;99096.56;6239343;23;20032;-79
2023/06/02 01:41:18;;;;;;;13.32;6.20;;;;;;;9.44;70.72;99099.25;6214063;23;20348;-80
2023/06/02 01:43:46;;;;;;;10.07;6.32;;;;;;;10.64;67.11;99088.44;6215271;23;20107;-80
2023/06/02 01:46:12;;;;;;;12.60;5.90;;;;;;;9.87;68.83;99095.31;6241825;22;20011;-80
2023/06/02 01:48:39;;;;;;;10.68;5.18;;;;;;;10.00;70.34;99100.34;6237775;23;20008;-80
2023/06/02 01:51:04;;;;;;;12.95;7.07;;;;;;;10.02;69.20;99090.25;6240681;23;20011;-80
2023/06/02 01:53:30;;;;;;;11.55;5.82;;;;;;;9.89;69.19;99098.53;6215243;23;20004;-80
2023/06/02 01:55:56;;;;;;;13.10;6.18;;;;;;;9.76;68.31;99102.31;6214247;23;20015;-80
2023/06/02 01:58:21;;;;;;;15.93;6.18;;;;;;;9.48;69.60;99108.38;6241566;22;20075;-81
2023/06/02 02:00:48;;;;;;;11.75;7.20;;;;;;;9.62;69.72;99104.41;6240476;22;20012;-79
2023/06/02 02:03:14;;;;;;;15.10;5.55;;;;;;;10.31;67.28;99092.69;6215319;23;20008;-80
2023/06/02 02:05:39;;;;;;;11.85;5.57;;;;;;;11.18;67.79;99095.66;6189774;23;20015;-80
2023/06/02 02:08:05;;;;;;;17.25;5.72;;;;;;;11.01;66.89;99106.38;6239841;23;20232;-79
2023/06/02 02:10:30;;;;;;;11.60;4.60;;;;;;;11.92;64.27;99103.06;6215256;23;20015;-79
2023/06/02 02:12:56;;;;;;;8.02;4.55;;;;;;;12.98;61.21;99098.66;6239571;23;20008;-79
2023/06/02 02:15:21;;;;;;;19.67;6.30;;;;;;;12.17;62.38;99102.50;6238873;23;20047;-79
2023/06/02 02:17:47;;;;;;;23.35;6.63;;;;;;;11.45;62.20;99109.09;6239540;23;20090;-79
2023/06/02 02:20:17;;;;;;;22.02;6.75;;;;;;;10.52;65.98;99113.34;6241390;22;20441;-79
2023/06/02 02:22:46;;;;;;;10.40;5.03;;;;;;;10.77;67.49;99106.81;6240722;23;20046;-79
2023/06/02 02:25:12;;;;;;;14.13;5.32;;;;;;;11.01;65.17;99098.34;6239436;22;20004;-79
2023/06/02 02:27:38;;;;;;;9.43;4.90;;;;;;;12.64;61.68;99098.16;6215070;23;20073;-80
2023/06/02 02:30:05;;;;;;;9.70;3.95;;;;;;;12.41;62.35;99116.38;6214845;23;20012;-80
2023/06/02 02:32:33;;;;;;;10.25;4.68;;;;;;;12.91;60.97;99113.34;6240488;23;20378;-80
2023/06/02 02:34:58;;;;;;;16.33;5.05;;;;;;;12.16;62.53;99113.47;6241228;22;20421;-79
2023/06/02 02:37:24;;;;;;;12.18;5.82;;;;;;;12.58;61.42;99107.19;6242660;22;20019;-80
2023/06/02 02:39:49;;;;;;;11.90;4.80;;;;;;;12.55;61.67;99112.25;6240727;22;20014;-79
2023/06/02 02:42:15;;;;;;;18.33;6.95;;;;;;;12.45;60.21;99109.50;6240551;23;20004;-79
2023/06/02 02:44:40;;;;;;;17.55;7.90;;;;;;;11.68;62.47;99108.91;6240703;23;20010;-79
2023/06/02 02:47:05;;;;;;;20.35;6.07;;;;;;;10.91;63.66;99116.09;6214603;23;20016;-79
2023/06/02 02:49:31;;;;;;;19.73;6.70;;;;;;;11.25;63.67;99117.66;6241772;22;20035;-79
2023/06/02 02:51:56;;;;;;;19.20;5.65;;;;;;;11.49;63.51;99111.03;6241295;23;20000;-79
2023/06/02 02:54:23;;;;;;;20.90;5.70;;;;;;;11.44;63.72;99108.31;6215360;23;20008;-79
2023/06/02 02:56:50;;;;;;;22.50;6.95;;;;;;;10.88;65.30;99117.38;6238801;23;20035;-79
2023/06/02 02:59:16;;;;;;;18.65;6.90;;;;;;;10.29;65.78;99107.31;6210791;23;20047;-79
2023/06/02 03:01:43;;;;;;;18.05;7.32;;;;;;;9.74;66.88;99126.50;6238059;23;20008;-79
2023/06/02 03:04:10;;;;;;;31.70;8.38;;;;;;;10.49;65.74;99131.69;6241129;22;20011;-79
2023/06/02 03:06:37;;;;;;;22.45;7.95;;;;;;;10.31;65.42;99110.56;6240586;23;20036;-79
2023/06/02 03:09:03;;;;;;;14.25;5.50;;;;;;;11.08;64.60;99114.22;6214588;23;20011;-79
2023/06/02 03:11:28;;;;;;;22.33;7.35;;;;;;;10.31;65.51;99114.03;6240505;23;20433;-79
2023/06/02 03:13:53;;;;;;;15.30;6.60;;;;;;;10.16;67.30;99127.09;6238542;23;20030;-80
2023/06/02 03:16:19;;;;;;;24.70;7.25;;;;;;;9.67;67.59;99117.03;6240022;23;20047;-79
2023/06/02 03:18:45;;;;;;;27.77;7.28;;;;;;;9.55;69.04;99118.91;6239577;23;20034;-80
2023/06/02 03:21:10;;;;;;;26.38;8.30;;;;;;;10.05;68.92;99130.56;6240478;22;20012;-80
2023/06/02 03:23:36;;;;;;;21.08;7.47;;;;;;;10.15;67.29;99143.34;6239246;23;20058;-80
2023/06/02 03:26:02;;;;;;;24.83;7.13;;;;;;;10.23;66.48;99130.44;6237077;23;20011;-80
2023/06/02 03:28:28;;;;;;;21.70;7.55;;;;;;;9.82;67.19;99136.00;6235575;23;20018;-79
2023/06/02 03:30:53;;;;;;;16.10;7.05;;;;;;;11.46;63.73;99132.13;6236990;22;20031;-79
2023/06/02 03:33:18;;;;;;;15.48;6.07;;;;;;;11.52;63.84;99121.25;6237392;23;20016;-79
2023/06/02 03:35:44;;;;;;;15.02;6.50;;;;;;;11.71;62.75;99135.13;6212644;23;20454;-79
2023/06/02 03:38:09;;;;;;;22.98;7.25;;;;;;;10.69;64.38;99133.88;6237251;23;20008;-79
2023/06/02 03:40:34;;;;;;;20.02;8.45;;;;;;;9.46;68.35;99141.63;6186508;23;20009;-80
2023/06/02 03:43:00;;;;;;;26.17;9.95;;;;;;;9.47;68.47;99133.41;6239391;23;20008;-80
2023/06/02 03:45:25;;;;;;;18.55;7.93;;;;;;;10.15;66.28;99146.81;6214596;23;20061;-80
2023/06/02 03:47:50;;;;;;;23.83;7.13;;;;;;;9.44;69.73;99128.53;6238885;23;20008;-80
2023/06/02 03:50:16;;;;;;;18.23;9.85;;;;;;;10.53;65.78;99138.97;6214285;23;20008;-80
2023/06/02 03:52:41;;;;;;;20.02;7.75;;;;;;;10.70;65.89;99133.66;6238036;23;20390;-80
2023/06/02 03:55:07;;;;;;;20.30;7.97;;;;;;;11.04;65.23;99126.44;6238958;23;20008;-81
2023/06/02 03:57:32;;;;;;;21.25;8.48;;;;;;;10.72;65.27;99142.25;6239633;22;20081;-79
2023/06/02 03:59:58;;;;;;;15.75;8.50;;;;;;;10.22;66.60;99136.00;6237507;22;20004;-79
2023/06/02 04:02:23;;;;;;;28.67;10.13;;;;;;;11.48;63.80;99144.19;6236136;23;20034;-79
2023/06/02 04:04:48;;;;;;;21.15;8.20;;;;;;;10.33;67.13;99148.50;6239207;23;20042;-79
2023/06/02 04:07:14;;;;;;;21.30;7.55;;;;;;;10.38;66.69;99141.38;6239065;22;20015;-79
2023/06/02 04:09:39;;;;;;;22.23;9.05;;;;;;;10.51;65.98;99140.25;6238776;22;20008;-81
2023/06/02 04:12:05;;;;;;;24.65;7.60;;;;;;;10.79;66.43;99147.41;6212178;23;20004;-82
2023/06/02 04:14:31;;;;;;;18.90;7.13;;;;;;;10.51;66.92;99150.94;6236024;22;20019;-81
2023/06/02 04:16:56;;;;;;;22.85;8.02;;;;;;;9.59;69.32;99144.84;6235676;23;20420;-80
2023/06/02 04:19:22;;;;;;;14.15;5.97;;;;;;;10.81;66.48;99142.63;6236778;22;20016;-80
2023/06/02 04:21:47;;;;;;;30.40;7.30;;;;;;;9.93;68.38;99151.16;6238995;22;20049;-80
2023/06/02 04:24:13;;;;;;;22.33;8.43;;;;;;;10.02;68.10;99154.25;6238199;23;20387;-80
2023/06/02 04:26:38;;;;;;;14.60;7.45;;;;;;;9.76;68.35;99142.28;6237248;23;20008;-80
2023/06/02 04:29:03;;;;;;;19.50;6.18;;;;;;;10.81;66.46;99139.97;6239247;22;20008;-81
2023/06/02 04:31:47;;;;;;;20.90;6.57;;;;;;;10.41;65.82;99134.75;6235766;23;20119;-81
2023/06/02 04:34:13;;;;;;;18.77;5.82;;;;;;;11.19;65.17;99153.38;6212616;23;20084;-80
2023/06/02 04:36:39;;;;;;;25.90;8.23;;;;;;;9.80;68.03;99154.91;6237847;22;20050;-81
2023/06/02 04:39:07;;;;;;;20.27;6.20;;;;;;;9.50;69.17;99158.78;6210533;23;20008;-80
2023/06/02 04:41:32;;;;;;;11.70;4.88;;;;;;;11.73;64.19;99149.88;6237237;23;20008;-81
2023/06/02 04:43:58;;;;;;;18.63;5.90;;;;;;;12.22;61.94;99155.28;6209055;23;20130;-81
2023/06/02 04:46:26;;;;;;;17.38;5.63;;;;;;;11.88;62.47;99157.31;6240555;23;20038;-81
2023/06/02 04:48:52;;;;;;;15.90;5.13;;;;;;;11.61;64.16;99159.06;6241506;22;20455;-81
2023/06/02 04:51:19;;;;;;;19.00;6.40;;;;;;;12.31;61.35;99169.84;6235297;22;20001;-81
2023/06/02 04:53:44;;;;;;;26.42;6.85;;;;;;;11.78;62.73;99166.00;6234484;22;20028;-80
2023/06/02 04:56:10;;;;;;;17.77;5.75;;;;;;;12.03;62.73;99168.19;6207734;23;20075;-81
2023/06/02 04:58:35;;;;;;;11.95;5.38;;;;;;;11.44;64.23;99171.66;6235179;23;20167;-80
2023/06/02 05:01:02;;;;;;;15.82;5.18;;;;;;;12.11;62.94;99178.44;6241982;22;20019;-80
2023/06/02 05:03:27;;;;;;;21.40;6.13;;;;;;;11.03;63.93;99175.59;6241956;22;20425;-80
2023/06/02 05:05:53;;;;;;;16.15;5.13;;;;;;;11.67;64.62;99176.81;6238407;23;19996;-80
2023/06/02 05:08:18;;;;;;;18.20;5.88;;;;;;;12.41;61.28;99180.63;6238730;23;20039;-80
2023/06/02 05:10:43;;;;;;;17.95;5.32;;;;;;;13.24;59.47;99175.53;6216777;23;20008;-80
2023/06/02 05:13:09;;;;;;;12.07;5.88;;;;;;;12.98;59.50;99179.03;6240356;23;20490;-80
2023/06/02 05:15:34;;;;;;;17.75;5.68;;;;;;;12.40;60.72;99190.56;6188060;23;20503;-80
2023/06/02 05:18:00;;;;;;;31.15;8.25;;;;;;;12.08;60.17;99178.94;6190551;23;20026;-80
2023/06/02 05:20:26;;;;;;;14.10;5.85;;;;;;;12.36;60.45;99175.25;6241663;23;20019;-79
2023/06/02 05:22:51;;;;;;;20.55;8.63;;;;;;;10.64;63.75;99179.19;6242375;22;20094;-80
2023/06/02 05:25:16;;;;;;;19.05;7.30;;;;;;;10.63;66.02;99183.72;6188468;23;20023;-79
2023/06/02 05:27:42;;;;;;;19.58;7.40;;;;;;;11.15;64.84;99179.78;6212308;23;20008;-79
2023/06/02 05:30:07;;;;;;;23.27;7.07;;;;;;;12.11;61.92;99185.66;6240718;23;20499;-79
2023/06/02 05:32:33;;;;;;;16.95;5.40;;;;;;;12.49;61.74;99196.28;6241119;23;20012;-79
2023/06/02 05:34:58;;;;;;;21.48;7.80;;;;;;;12.27;61.69;99192.81;6240339;23;20023;-80
2023/06/02 05:37:23;;;;;;;24.50;9.10;;;;;;;11.84;62.15;99178.38;6217008;23;20400;-79
2023/06/02 05:39:49;;;;;;;13.77;6.28;;;;;;;11.95;63.11;99190.00;6215701;23;20452;-79
2023/06/02 05:42:14;;;;;;;20.20;7.28;;;;;;;12.67;61.54;99196.72;6240371;23;20322;-80
2023/06/02 05:44:40;;;;;;;16.42;7.90;;;;;;;12.60;61.20;99198.78;6213857;23;20413;-79
2023/06/02 05:47:05;;;;;;;17.35;7.45;;;;;;;12.58;60.35;99198.22;6238379;23;20012;-79
2023/06/02 05:49:31;;;;;;;23.35;8.50;;;;;;;11.24;62.87;99201.56;6242762;23;20471;-81
2023/06/02 05:51:56;;;;;;;21.50;9.48;;;;;;;10.83;65.46;99194.75;6242460;23;20008;-81
2023/06/02 05:54:21;;;;;;;23.27;9.23;;;;;;;11.54;63.00;99193.16;6242532;23;20425;-79
2023/06/02 05:56:47;;;;;;;23.17;11.52;;;;;;;10.63;64.72;99212.28;6241992;23;20420;-79
2023/06/02 05:59:12;;;;;;;22.05;10.57;;;;;;;10.57;65.55;99201.50;6215181;23;20122;-79
2023/06/02 08:04:28;;;;;;;21.17;8.90;;;;;;;14.32;58.72;99200.81;5089137;27;20417;-75
2023/06/02 08:06:55;;;;;;;14.63;7.75;;;;;;;12.93;62.49;99203.09;5036173;23;20043;-79
2023/06/02 08:09:20;;;;;;;14.95;9.20;;;;;;;13.10;63.01;99203.03;5004557;28;20026;-79
2023/06/02 08:11:48;;;;;;;21.73;9.27;;;;;;;13.27;62.01;99209.88;5001880;28;20513;-80
2023/06/02 08:14:14;;;;;;;20.10;7.63;;;;;;;13.95;60.82;99205.47;5006732;28;20036;-80
2023/06/02 08:16:41;;;;;;;27.73;9.52;;;;;;;13.91;60.16;99204.38;4992167;28;20466;-81
2023/06/02 08:19:07;;;;;;;15.40;7.78;;;;;;;14.24;59.60;99194.03;4992754;28;20041;-81
2023/06/02 08:21:33;;;;;;;20.30;9.18;;;;;;;13.22;62.11;99200.97;5000192;28;21208;-80
2023/06/02 08:23:58;;;;;;;23.00;8.82;;;;;;;13.90;60.69;99202.75;4988296;28;20108;-80
2023/06/02 08:26:26;;;;;;;20.95;8.23;;;;;;;14.33;61.99;99196.25;4986755;28;20405;-80
2023/06/02 08:28:53;;;;;;;19.65;8.45;;;;;;;13.07;61.96;99196.31;4993777;28;20065;-80
2023/06/02 08:31:22;;;;;;;19.10;7.38;;;;;;;14.10;61.04;99192.91;5002114;28;20022;-80
2023/06/02 08:33:54;;;;;;;18.75;8.20;;;;;;;13.92;61.56;99201.41;5003012;28;20022;-80
2023/06/02 08:36:19;;;;;;;29.67;9.07;;;;;;;13.16;62.59;99208.16;5017582;28;20358;-80
2023/06/02 08:38:51;;;;;;;16.02;8.07;;;;;;;12.72;63.72;99201.31;4980840;28;20026;-80
2023/06/02 08:41:17;;;;;;;19.48;6.32;;;;;;;14.55;60.49;99194.94;5000030;28;20474;-80
2023/06/02 08:43:42;;;;;;;13.75;7.10;;;;;;;14.90;59.14;99181.56;5004054;28;20021;-80
2023/06/02 08:46:12;;;;;;;19.50;6.97;;;;;;;14.02;61.24;99204.13;5003666;28;20077;-81
2023/06/02 08:48:41;;;;;;;17.23;6.20;;;;;;;14.61;60.88;99183.13;5004437;28;20034;-80
2023/06/02 08:51:09;;;;;;;20.52;8.10;;;;;;;12.88;62.83;99207.63;5006780;28;20029;-80
2023/06/02 08:53:36;;;;;;;20.60;6.97;;;;;;;12.89;64.71;99195.84;5000646;28;20027;-80
2023/06/02 08:56:02;;;;;;;22.17;8.18;;;;;;;13.06;63.96;99197.34;5003651;28;20038;-80
2023/06/02 08:58:29;;;;;;;21.80;7.65;;;;;;;13.06;64.26;99200.03;5007048;28;20045;-80
2023/06/02 09:00:55;;;;;;;21.20;8.88;;;;;;;12.93;64.25;99208.47;5003351;28;20030;-80
2023/06/02 09:03:21;;;;;;;22.23;8.13;;;;;;;13.13;64.38;99203.31;4965140;28;20068;-79
2023/06/02 09:05:46;;;;;;;27.65;7.55;;;;;;;14.63;62.30;99202.50;4985688;28;20104;-80
2023/06/02 09:08:13;;;;;;;16.77;7.30;;;;;;;13.63;63.37;99205.53;4992258;28;20057;-80
2023/06/02 09:10:41;;;;;;;19.10;6.20;;;;;;;15.73;58.79;99196.31;4986719;28;20030;-80
2023/06/02 09:13:10;;;;;;;28.85;5.72;;;;;;;15.49;58.83;99208.72;4992691;28;20501;-80
2023/06/02 09:15:54;;;;;;;14.35;6.53;;;;;;;14.95;60.59;99194.22;4987300;28;20394;-80
2023/06/02 09:18:20;;;;;;;20.25;6.70;;;;;;;15.95;58.32;99204.06;5003240;28;20122;-80
2023/06/02 09:20:48;;;;;;;16.52;6.40;;;;;;;14.58;61.97;99189.06;4987866;28;20056;-79
2023/06/02 09:23:13;;;;;;;20.83;7.82;;;;;;;15.31;59.67;99198.50;4973517;28;20019;-80
2023/06/02 09:25:40;;;;;;;25.23;6.78;;;;;;;14.74;61.23;99200.66;4990989;28;20121;-80
2023/06/02 09:28:07;;;;;;;17.75;7.30;;;;;;;14.27;62.57;99195.38;4992406;28;20034;-79
2023/06/02 09:30:33;;;;;;;21.00;7.28;;;;;;;14.51;62.39;99201.13;4990942;28;20052;-79
2023/06/02 09:33:00;;;;;;;14.93;6.93;;;;;;;13.44;63.11;99215.88;4986851;28;20030;-79
2023/06/02 09:35:42;;;;;;;16.15;6.18;;;;;;;14.78;61.16;99209.78;4990269;28;20379;-80
2023/06/02 09:38:10;;;;;;;12.93;5.53;;;;;;;16.26;58.07;99202.88;4988038;28;20440;-80
2023/06/02 09:40:37;;;;;;;19.10;6.63;;;;;;;16.78;56.64;99223.06;4971960;28;20474;-80
2023/06/02 09:43:08;;;;;;;13.25;6.10;;;;;;;17.03;57.82;99204.03;4988230;28;20383;-81
2023/06/02 09:45:54;;;;;;;21.27;8.27;;;;;;;15.13;62.03;99215.19;4990158;28;20377;-80
2023/06/02 09:48:22;;;;;;;28.50;7.75;;;;;;;15.17;61.59;99218.94;4982880;28;20045;-81
2023/06/02 09:50:48;;;;;;;19.80;8.35;;;;;;;15.87;60.10;99223.47;4973586;28;20038;-81
2023/06/02 09:53:15;;;;;;;20.88;6.47;;;;;;;15.94;59.76;99217.78;4990565;28;20478;-81
2023/06/02 09:55:41;;;;;;;18.20;6.47;;;;;;;16.46;59.50;99213.53;4975154;28;20036;-81
2023/06/02 09:58:07;;;;;;;20.73;6.80;;;;;;;17.52;55.71;99202.00;4972167;28;20030;-81
2023/06/02 10:00:35;;;;;;;18.77;8.43;;;;;;;15.64;61.12;99202.50;4989237;28;20069;-79
2023/06/02 10:03:01;;;;;;;17.88;6.95;;;;;;;16.20;59.50;99217.44;4990004;28;20033;-80
2023/06/02 10:05:28;;;;;;;28.33;8.98;;;;;;;17.08;57.67;99207.50;4988982;28;20026;-80
2023/06/02 10:08:01;;;;;;;28.65;8.65;;;;;;;16.48;58.07;99219.47;4990332;28;20116;-80
2023/06/02 10:10:44;;;;;;;14.23;6.35;;;;;;;17.47;57.08;99204.75;4988907;28;20022;-81
2023/06/02 10:13:35;;;;;;;26.90;9.40;;;;;;;15.82;60.87;99210.00;4990117;28;20105;-80
2023/06/02 10:16:18;;;;;;;24.95;8.77;;;;;;;15.98;60.55;99213.47;4990614;28;20034;-80
2023/06/02 10:19:12;;;;;;;23.38;7.93;;;;;;;15.66;61.46;99208.47;4983931;28;20420;-80
2023/06/02 10:21:52;;;;;;;24.65;8.93;;;;;;;15.69;62.98;99205.19;4985070;28;20036;-81
2023/06/02 10:24:27;;;;;;;18.02;7.13;;;;;;;16.29;60.04;99206.91;4988669;28;20105;-81
2023/06/02 10:27:23;;;;;;;25.95;8.63;;;;;;;16.61;58.67;99206.47;4989750;28;20034;-81
2023/06/02 10:29:55;;;;;;;22.33;8.73;;;;;;;15.53;62.14;99211.72;4989912;28;20041;-81
2023/06/02 10:32:22;;;;;;;26.85;9.05;;;;;;;15.83;61.92;99205.44;4988490;28;20105;-80
2023/06/02 10:34:54;;;;;;;18.45;8.63;;;;;;;17.16;58.90;99195.31;4982918;28;20026;-81
2023/06/02 10:37:21;;;;;;;21.02;8.57;;;;;;;15.93;60.22;99205.41;4987239;28;20528;-81
2023/06/02 10:39:51;;;;;;;14.52;8.07;;;;;;;16.85;60.83;99197.44;4988537;28;20034;-81
2023/06/02 10:42:18;;;;;;;21.60;8.15;;;;;;;16.31;60.68;99197.47;4987598;28;20046;-81
2023/06/02 10:44:44;;;;;;;22.58;8.25;;;;;;;16.07;61.62;99204.56;4990438;28;20477;-80
2023/06/02 10:47:18;;;;;;;23.95;8.80;;;;;;;16.25;60.72;99206.63;4988907;28;20061;-80
2023/06/02 10:49:55;;;;;;;23.55;9.43;;;;;;;16.10;61.36;99195.09;4988621;28;20061;-80
2023/06/02 10:52:21;;;;;;;14.15;6.60;;;;;;;18.16;57.27;99192.66;4970387;28;20042;-80
2023/06/02 10:55:12;;;;;;;24.85;8.82;;;;;;;16.29;60.30;99202.28;4983137;28;20026;-80
2023/06/02 10:58:03;;;;;;;16.98;7.40;;;;;;;16.35;61.58;99205.78;4985330;28;20041;-80
2023/06/02 11:00:43;;;;;;;20.77;6.95;;;;;;;17.32;59.28;99212.97;4982475;28;20048;-80
2023/06/02 11:03:17;;;;;;;25.67;8.55;;;;;;;16.49;60.15;99214.84;4985597;28;20023;-80
2023/06/02 11:05:44;;;;;;;16.33;6.70;;;;;;;17.37;59.48;99214.81;4985523;28;20069;-80
2023/06/02 11:08:17;;;;;;;20.90;7.55;;;;;;;17.93;57.80;99219.41;4990950;28;20030;-80
2023/06/02 11:10:47;;;;;;;25.85;7.32;;;;;;;17.72;58.64;99223.41;4990859;28;20014;-80
2023/06/02 11:13:13;;;;;;;25.58;8.40;;;;;;;17.08;59.56;99222.91;4987150;28;20046;-81
2023/06/02 11:15:42;;;;;;;13.50;6.18;;;;;;;19.21;54.96;99210.13;4983884;28;20030;-81
2023/06/02 11:18:28;;;;;;;23.63;7.40;;;;;;;17.54;57.37;99216.03;4987337;28;20030;-80
2023/06/02 11:20:55;;;;;;;16.63;6.68;;;;;;;16.99;58.51;99209.19;4979712;28;20487;-80
2023/06/02 11:23:22;;;;;;;21.80;7.15;;;;;;;17.38;58.44;99214.53;4984658;28;20629;-80
2023/06/02 11:25:49;;;;;;;24.45;8.07;;;;;;;17.00;58.94;99218.88;4979462;28;20464;-80
2023/06/02 11:28:22;;;;;;;22.25;6.72;;;;;;;17.08;59.60;99215.59;4986761;28;20030;-81
2023/06/02 11:31:04;;;;;;;15.27;6.25;;;;;;;17.40;57.86;99201.56;4989445;28;20061;-81
2023/06/02 11:33:38;;;;;;;19.85;5.70;;;;;;;17.52;57.94;99203.91;4986294;28;20058;-81
2023/06/02 11:36:05;;;;;;;14.45;6.68;;;;;;;17.47;57.09;99206.63;4989698;28;20077;-82
2023/06/02 11:38:34;;;;;;;14.98;5.28;;;;;;;17.89;56.97;99202.16;4989841;28;20030;-81
2023/06/02 11:41:13;;;;;;;14.10;6.25;;;;;;;18.20;56.00;99210.72;4987466;28;20402;-82
2023/06/02 11:43:39;;;;;;;21.55;8.00;;;;;;;17.83;56.65;99211.41;4983914;28;20417;-82
2023/06/02 11:46:09;;;;;;;19.67;6.40;;;;;;;17.62;58.23;99214.63;4987822;28;20037;-82
2023/06/02 11:48:38;;;;;;;11.75;5.93;;;;;;;18.75;56.70;99213.81;5001977;28;20026;-82
2023/06/02 11:51:04;;;;;;;14.18;7.22;;;;;;;17.27;58.25;99214.91;4987040;28;20030;-82
2023/06/02 11:53:30;;;;;;;20.67;6.85;;;;;;;17.88;56.98;99205.16;4986516;28;20030;-82
2023/06/02 11:55:55;;;;;;;20.13;6.03;;;;;;;17.89;57.50;99202.16;4987741;28;20030;-82
2023/06/02 11:58:27;;;;;;;16.92;6.40;;;;;;;17.16;57.52;99209.59;4989807;28;20035;-82
2023/06/02 12:01:09;;;;;;;24.70;6.68;;;;;;;17.63;57.12;99203.53;4981194;28;20035;-82
2023/06/02 12:03:36;;;;;;;16.33;5.90;;;;;;;18.34;56.20;99191.91;4966624;28;20502;-82
2023/06/02 12:06:13;;;;;;;22.98;5.97;;;;;;;19.42;53.87;99206.00;4985682;28;20026;-83
2023/06/02 12:08:38;;;;;;;23.02;7.35;;;;;;;19.15;53.29;99197.78;4991066;28;20026;-83
2023/06/02 12:11:14;;;;;;;27.63;5.55;;;;;;;18.39;54.78;99191.84;4986682;28;20038;-82
2023/06/02 12:13:40;;;;;;;;;;;;;;;16.89;56.25;99209.25;4989603;28;20023;-82
2023/06/02 12:16:20;;;;;;;16.33;6.80;;;;;;;16.95;57.60;99202.75;4985152;28;20374;-82
2023/06/02 12:18:46;;;;;;;17.73;7.15;;;;;;;17.01;56.89;99195.44;4983067;28;20462;-82
2023/06/02 12:21:41;;;;;;;12.13;6.00;;;;;;;17.17;57.47;99197.72;4980812;28;20066;-82
2023/06/02 12:24:07;;;;;;;18.98;5.97;;;;;;;16.97;58.18;99205.16;4968056;28;20049;-82
2023/06/02 12:26:41;;;;;;;10.48;6.15;;;;;;;16.92;57.78;99202.50;4983706;28;20030;-83
2023/06/02 12:29:08;;;;;;;19.17;7.60;;;;;;;17.10;57.27;99205.31;4980566;28;20054;-82
2023/06/02 12:31:33;;;;;;;17.35;6.60;;;;;;;17.63;57.09;99197.31;4991102;28;20497;-82
2023/06/02 12:33:59;;;;;;;15.85;5.90;;;;;;;18.25;56.13;99199.84;4990544;28;20054;-83
2023/06/02 12:36:25;;;;;;;15.32;6.10;;;;;;;18.08;54.95;99204.13;4989444;28;20042;-83
2023/06/02 12:38:51;;;;;;;15.35;6.53;;;;;;;18.00;54.88;99200.16;4968782;28;20452;-82
2023/06/02 12:41:16;;;;;;;13.90;6.45;;;;;;;17.67;56.61;99203.78;4986056;28;20118;-82
2023/06/02 12:43:42;;;;;;;14.63;5.63;;;;;;;17.37;56.39;99198.63;4965743;28;20050;-82
2023/06/02 12:46:09;;;;;;;13.05;5.90;;;;;;;17.42;57.07;99207.50;4985642;28;20042;-82
2023/06/02 12:48:35;;;;;;;14.77;5.95;;;;;;;17.82;56.52;99196.28;4983646;28;20038;-82
2023/06/02 12:51:00;;;;;;;15.60;6.13;;;;;;;18.15;56.63;99213.47;4984666;28;20040;-83
2023/06/02 12:53:25;;;;;;;24.98;6.47;;;;;;;17.71;56.74;99204.81;4975436;28;20058;-82
2023/06/02 12:55:51;;;;;;;15.43;7.20;;;;;;;16.95;57.89;99197.34;5004107;28;20502;-82
2023/06/02 12:58:17;;;;;;;12.93;4.90;;;;;;;17.58;57.68;99214.38;4998781;28;20089;-83
2023/06/02 13:00:43;;;;;;;20.27;6.97;;;;;;;17.52;57.59;99212.81;4972077;28;20038;-83
2023/06/02 13:03:09;;;;;;;19.45;6.25;;;;;;;16.73;58.51;99215.81;4990291;28;20053;-82
2023/06/02 13:05:35;;;;;;;16.33;6.95;;;;;;;16.95;56.96;99202.75;4988795;28;20022;-82
2023/06/02 13:08:02;;;;;;;13.90;5.30;;;;;;;17.37;57.90;99214.81;4958925;28;20038;-81
2023/06/02 13:10:27;;;;;;;13.82;5.90;;;;;;;16.96;58.17;99214.34;4989581;28;20026;-82
2023/06/02 13:12:53;;;;;;;11.88;7.00;;;;;;;16.43;58.73;99208.69;4970512;28;20390;-82
2023/06/02 13:15:19;;;;;;;16.48;6.75;;;;;;;17.42;57.68;99212.88;4988166;28;20046;-82
2023/06/02 13:17:46;;;;;;;11.80;6.22;;;;;;;17.73;56.61;99208.03;4990321;28;20084;-83
2023/06/02 13:20:12;;;;;;;11.70;5.95;;;;;;;17.71;56.96;99223.72;4971116;28;20038;-83
2023/06/02 13:22:40;;;;;;;16.63;5.95;;;;;;;17.95;56.17;99214.50;4986407;28;20057;-82
2023/06/02 13:25:06;;;;;;;16.17;6.10;;;;;;;18.14;55.75;99217.28;4989425;28;20038;-82
2023/06/02 13:27:31;;;;;;;22.70;6.38;;;;;;;18.16;56.05;99217.81;4991770;28;20049;-82
2023/06/02 13:29:57;;;;;;;12.77;5.28;;;;;;;19.01;54.59;99207.72;4993444;28;20026;-82
2023/06/02 13:32:22;;;;;;;15.98;6.78;;;;;;;18.65;54.47;99210.16;4990472;28;20489;-82